sensor_id;sensor_type;location;lat;lon;timestamp;temperature;humidity
10133;DHT22;5106;50.926;7.080;2022-11-18T00:02:02;9.40;86.50
10133;DHT22;5106;50.926;7.080;2022-11-18T00:04:28;9.40;86.60
10133;DHT22;5106;50.926;7.080;2022-11-18T00:06:54;9.40;86.60
10133;DHT22;5106;50.926;7.080;2022-11-18T00:09:19;9.40;86.60
10133;DHT22;5106;50.926;7.080;2022-11-18T00:11:45;9.40;86.50
10133;DHT22;5106;50.926;7.080;2022-11-18T00:14:29;9.40;86.50
10133;DHT22;5106;50.926;7.080;2022-11-18T00:17:03;9.40;86.50
10133;DHT22;5106;50.926;7.080;2022-11-18T00:19:31;9.40;86.50
10133;DHT22;5106;50.926;7.080;2022-11-18T00:21:57;9.40;86.60
10133;DHT22;5106;50.926;7.080;2022-11-18T00:24:24;9.40;86.60
10133;DHT22;5106;50.926;7.080;2022-11-18T00:26:50;9.40;86.50
10133;DHT22;5106;50.926;7.080;2022-11-18T00:29:16;9.40;86.60
10133;DHT22;5106;50.926;7.080;2022-11-18T00:31:41;9.40;86.60
10133;DHT22;5106;50.926;7.080;2022-11-18T00:34:15;9.40;86.60
10133;DHT22;5106;50.926;7.080;2022-11-18T00:36:42;9.40;86.60
10133;DHT22;5106;50.926;7.080;2022-11-18T00:39:09;9.40;86.60
10133;DHT22;5106;50.926;7.080;2022-11-18T00:41:35;9.30;86.50
10133;DHT22;5106;50.926;7.080;2022-11-18T00:44:20;9.30;86.60
10133;DHT22;5106;50.926;7.080;2022-11-18T00:46:45;9.30;86.70
10133;DHT22;5106;50.926;7.080;2022-11-18T00:49:11;9.30;86.80
10133;DHT22;5106;50.926;7.080;2022-11-18T00:51:36;9.30;86.90
10133;DHT22;5106;50.926;7.080;2022-11-18T00:54:02;9.30;86.90
10133;DHT22;5106;50.926;7.080;2022-11-18T00:56:28;9.30;86.90
10133;DHT22;5106;50.926;7.080;2022-11-18T00:58:54;9.30;86.80
10133;DHT22;5106;50.926;7.080;2022-11-18T01:01:19;9.30;86.90
10133;DHT22;5106;50.926;7.080;2022-11-18T01:03:45;9.20;86.90
10133;DHT22;5106;50.926;7.080;2022-11-18T01:06:11;9.20;87.10
10133;DHT22;5106;50.926;7.080;2022-11-18T01:08:37;9.20;87.20
10133;DHT22;5106;50.926;7.080;2022-11-18T01:11:02;9.20;87.20
10133;DHT22;5106;50.926;7.080;2022-11-18T01:13:50;9.20;87.30
10133;DHT22;5106;50.926;7.080;2022-11-18T01:16:23;9.20;87.40
10133;DHT22;5106;50.926;7.080;2022-11-18T01:18:49;9.20;87.40
10133;DHT22;5106;50.926;7.080;2022-11-18T01:21:16;9.20;87.30
10133;DHT22;5106;50.926;7.080;2022-11-18T01:23:42;9.10;87.20
10133;DHT22;5106;50.926;7.080;2022-11-18T01:26:09;9.10;87.20
10133;DHT22;5106;50.926;7.080;2022-11-18T01:28:35;9.10;87.30
10133;DHT22;5106;50.926;7.080;2022-11-18T01:31:08;9.10;87.30
10133;DHT22;5106;50.926;7.080;2022-11-18T01:33:34;9.10;87.40
10133;DHT22;5106;50.926;7.080;2022-11-18T01:35:59;9.10;87.50
10133;DHT22;5106;50.926;7.080;2022-11-18T01:38:25;9.10;87.50
10133;DHT22;5106;50.926;7.080;2022-11-18T01:40:55;9.00;87.40
10133;DHT22;5106;50.926;7.080;2022-11-18T01:43:22;9.00;87.40
10133;DHT22;5106;50.926;7.080;2022-11-18T01:45:49;9.00;87.50
10133;DHT22;5106;50.926;7.080;2022-11-18T01:48:24;9.00;87.70
10133;DHT22;5106;50.926;7.080;2022-11-18T01:51:02;9.00;87.70
10133;DHT22;5106;50.926;7.080;2022-11-18T01:53:32;9.00;87.70
10133;DHT22;5106;50.926;7.080;2022-11-18T01:56:02;9.00;87.60
10133;DHT22;5106;50.926;7.080;2022-11-18T01:58:42;9.00;87.70
10133;DHT22;5106;50.926;7.080;2022-11-18T02:01:09;9.00;87.70
10133;DHT22;5106;50.926;7.080;2022-11-18T02:03:35;9.00;87.80
10133;DHT22;5106;50.926;7.080;2022-11-18T02:06:02;9.00;87.90
10133;DHT22;5106;50.926;7.080;2022-11-18T02:08:29;9.10;87.90
10133;DHT22;5106;50.926;7.080;2022-11-18T02:10:56;9.00;87.80
10133;DHT22;5106;50.926;7.080;2022-11-18T02:13:21;9.00;87.90
10133;DHT22;5106;50.926;7.080;2022-11-18T02:15:59;9.00;88.00
10133;DHT22;5106;50.926;7.080;2022-11-18T02:21:36;9.00;88.10
10133;DHT22;5106;50.926;7.080;2022-11-18T02:29:48;9.00;88.10
10133;DHT22;5106;50.926;7.080;2022-11-18T02:32:28;9.00;88.00
10133;DHT22;5106;50.926;7.080;2022-11-18T02:38:28;9.00;88.00
10133;DHT22;5106;50.926;7.080;2022-11-18T02:40:58;9.00;88.00
10133;DHT22;5106;50.926;7.080;2022-11-18T02:43:30;9.00;88.10
10133;DHT22;5106;50.926;7.080;2022-11-18T02:46:07;9.00;88.00
10133;DHT22;5106;50.926;7.080;2022-11-18T02:48:38;9.00;88.00
10133;DHT22;5106;50.926;7.080;2022-11-18T02:51:06;9.00;87.90
10133;DHT22;5106;50.926;7.080;2022-11-18T02:53:35;9.00;87.90
10133;DHT22;5106;50.926;7.080;2022-11-18T02:56:02;8.90;87.90
10133;DHT22;5106;50.926;7.080;2022-11-18T02:58:28;8.90;87.90
10133;DHT22;5106;50.926;7.080;2022-11-18T03:01:00;8.90;87.90
10133;DHT22;5106;50.926;7.080;2022-11-18T03:03:31;8.90;88.00
10133;DHT22;5106;50.926;7.080;2022-11-18T03:08:44;8.90;88.20
10133;DHT22;5106;50.926;7.080;2022-11-18T03:11:23;8.90;88.20
10133;DHT22;5106;50.926;7.080;2022-11-18T03:17:23;8.90;88.30
10133;DHT22;5106;50.926;7.080;2022-11-18T03:20:08;8.90;88.20
10133;DHT22;5106;50.926;7.080;2022-11-18T03:31:11;8.80;88.40
10133;DHT22;5106;50.926;7.080;2022-11-18T03:33:43;8.90;88.30
10133;DHT22;5106;50.926;7.080;2022-11-18T03:36:12;8.90;88.40
10133;DHT22;5106;50.926;7.080;2022-11-18T03:38:43;8.90;88.40
10133;DHT22;5106;50.926;7.080;2022-11-18T03:41:14;8.90;88.40
10133;DHT22;5106;50.926;7.080;2022-11-18T03:43:46;8.90;88.50
10133;DHT22;5106;50.926;7.080;2022-11-18T03:46:23;8.90;88.50
10133;DHT22;5106;50.926;7.080;2022-11-18T03:48:54;8.90;88.50
10133;DHT22;5106;50.926;7.080;2022-11-18T03:51:43;8.90;88.50
10133;DHT22;5106;50.926;7.080;2022-11-18T03:54:19;8.90;88.40
10133;DHT22;5106;50.926;7.080;2022-11-18T03:56:51;8.90;88.30
10133;DHT22;5106;50.926;7.080;2022-11-18T03:59:28;8.90;88.40
10133;DHT22;5106;50.926;7.080;2022-11-18T04:02:02;8.90;88.30
10133;DHT22;5106;50.926;7.080;2022-11-18T04:04:29;8.90;88.50
10133;DHT22;5106;50.926;7.080;2022-11-18T04:09:53;8.90;88.50
10133;DHT22;5106;50.926;7.080;2022-11-18T04:12:21;8.90;88.40
10133;DHT22;5106;50.926;7.080;2022-11-18T04:14:48;8.90;88.30
10133;DHT22;5106;50.926;7.080;2022-11-18T04:17:19;8.90;88.20
10133;DHT22;5106;50.926;7.080;2022-11-18T04:19:46;8.80;88.30
10133;DHT22;5106;50.926;7.080;2022-11-18T04:22:13;8.80;88.30
10133;DHT22;5106;50.926;7.080;2022-11-18T04:24:39;8.80;88.20
10133;DHT22;5106;50.926;7.080;2022-11-18T04:27:05;8.80;88.20
10133;DHT22;5106;50.926;7.080;2022-11-18T04:29:32;8.80;88.20
10133;DHT22;5106;50.926;7.080;2022-11-18T04:31:58;8.80;88.20
10133;DHT22;5106;50.926;7.080;2022-11-18T04:34:24;8.70;88.10
10133;DHT22;5106;50.926;7.080;2022-11-18T04:36:50;8.70;88.10
10133;DHT22;5106;50.926;7.080;2022-11-18T04:39:16;8.70;88.10
10133;DHT22;5106;50.926;7.080;2022-11-18T04:41:43;8.70;88.20
10133;DHT22;5106;50.926;7.080;2022-11-18T04:44:31;8.70;88.10
10133;DHT22;5106;50.926;7.080;2022-11-18T04:47:02;8.70;88.20
10133;DHT22;5106;50.926;7.080;2022-11-18T04:49:29;8.70;88.20
10133;DHT22;5106;50.926;7.080;2022-11-18T04:51:55;8.60;88.00
10133;DHT22;5106;50.926;7.080;2022-11-18T04:54:21;8.60;88.00
10133;DHT22;5106;50.926;7.080;2022-11-18T04:56:47;8.60;88.10
10133;DHT22;5106;50.926;7.080;2022-11-18T04:59:14;8.60;88.00
10133;DHT22;5106;50.926;7.080;2022-11-18T05:01:40;8.60;88.00
10133;DHT22;5106;50.926;7.080;2022-11-18T05:04:06;8.60;88.10
10133;DHT22;5106;50.926;7.080;2022-11-18T05:06:33;8.60;88.20
10133;DHT22;5106;50.926;7.080;2022-11-18T05:08:59;8.60;88.10
10133;DHT22;5106;50.926;7.080;2022-11-18T05:11:26;8.60;88.20
10133;DHT22;5106;50.926;7.080;2022-11-18T05:14:11;8.60;88.20
10133;DHT22;5106;50.926;7.080;2022-11-18T05:16:37;8.60;88.30
10133;DHT22;5106;50.926;7.080;2022-11-18T05:19:04;8.60;88.30
10133;DHT22;5106;50.926;7.080;2022-11-18T05:21:30;8.70;88.50
10133;DHT22;5106;50.926;7.080;2022-11-18T05:23:57;8.70;88.50
10133;DHT22;5106;50.926;7.080;2022-11-18T05:26:22;8.70;88.50
10133;DHT22;5106;50.926;7.080;2022-11-18T05:28:48;8.70;88.50
10133;DHT22;5106;50.926;7.080;2022-11-18T05:31:15;8.70;88.40
10133;DHT22;5106;50.926;7.080;2022-11-18T05:33:41;8.70;88.40
10133;DHT22;5106;50.926;7.080;2022-11-18T05:36:10;8.70;88.40
10133;DHT22;5106;50.926;7.080;2022-11-18T05:38:35;8.70;88.50
10133;DHT22;5106;50.926;7.080;2022-11-18T05:41:02;8.70;88.50
10133;DHT22;5106;50.926;7.080;2022-11-18T05:43:28;8.80;88.60
10133;DHT22;5106;50.926;7.080;2022-11-18T05:45:54;8.80;88.60
10133;DHT22;5106;50.926;7.080;2022-11-18T05:48:20;8.80;88.60
10133;DHT22;5106;50.926;7.080;2022-11-18T05:50:48;8.80;88.50
10133;DHT22;5106;50.926;7.080;2022-11-18T05:53:15;8.80;88.50
10133;DHT22;5106;50.926;7.080;2022-11-18T05:58:33;8.80;88.60
10133;DHT22;5106;50.926;7.080;2022-11-18T06:01:02;8.80;88.70
10133;DHT22;5106;50.926;7.080;2022-11-18T06:03:31;8.80;88.70
10133;DHT22;5106;50.926;7.080;2022-11-18T06:06:00;8.80;88.70
10133;DHT22;5106;50.926;7.080;2022-11-18T06:08:29;8.90;88.60
10133;DHT22;5106;50.926;7.080;2022-11-18T06:10:56;8.90;88.60
10133;DHT22;5106;50.926;7.080;2022-11-18T06:13:27;8.90;88.40
10133;DHT22;5106;50.926;7.080;2022-11-18T06:15:53;8.80;88.30
10133;DHT22;5106;50.926;7.080;2022-11-18T06:18:28;8.80;88.30
10133;DHT22;5106;50.926;7.080;2022-11-18T06:20:58;8.80;88.50
10133;DHT22;5106;50.926;7.080;2022-11-18T06:23:26;8.80;88.50
10133;DHT22;5106;50.926;7.080;2022-11-18T06:25:53;8.80;88.60
10133;DHT22;5106;50.926;7.080;2022-11-18T06:28:19;8.80;88.60
10133;DHT22;5106;50.926;7.080;2022-11-18T06:30:45;8.80;88.50
10133;DHT22;5106;50.926;7.080;2022-11-18T06:33:11;8.70;88.50
10133;DHT22;5106;50.926;7.080;2022-11-18T06:35:37;8.70;88.50
10133;DHT22;5106;50.926;7.080;2022-11-18T06:38:02;8.70;88.50
10133;DHT22;5106;50.926;7.080;2022-11-18T06:40:29;8.70;88.50
10133;DHT22;5106;50.926;7.080;2022-11-18T06:42:55;8.70;88.50
10133;DHT22;5106;50.926;7.080;2022-11-18T06:45:39;8.70;88.50
10133;DHT22;5106;50.926;7.080;2022-11-18T06:48:24;8.70;88.50
10133;DHT22;5106;50.926;7.080;2022-11-18T06:50:50;8.80;88.50
10133;DHT22;5106;50.926;7.080;2022-11-18T06:53:15;8.80;88.40
10133;DHT22;5106;50.926;7.080;2022-11-18T06:55:41;8.80;88.50
10133;DHT22;5106;50.926;7.080;2022-11-18T06:58:06;8.80;88.40
10133;DHT22;5106;50.926;7.080;2022-11-18T07:00:32;8.80;88.50
10133;DHT22;5106;50.926;7.080;2022-11-18T07:02:57;8.80;88.50
10133;DHT22;5106;50.926;7.080;2022-11-18T07:05:23;8.80;88.50
10133;DHT22;5106;50.926;7.080;2022-11-18T07:07:49;8.80;88.60
10133;DHT22;5106;50.926;7.080;2022-11-18T07:10:14;8.80;88.70
10133;DHT22;5106;50.926;7.080;2022-11-18T07:12:40;8.80;88.70
10133;DHT22;5106;50.926;7.080;2022-11-18T07:15:06;8.80;88.80
10133;DHT22;5106;50.926;7.080;2022-11-18T07:17:32;8.80;88.80
10133;DHT22;5106;50.926;7.080;2022-11-18T07:19:57;8.80;88.80
10133;DHT22;5106;50.926;7.080;2022-11-18T07:22:23;8.90;88.70
10133;DHT22;5106;50.926;7.080;2022-11-18T07:24:49;8.90;88.80
10133;DHT22;5106;50.926;7.080;2022-11-18T07:27:14;8.90;88.90
10133;DHT22;5106;50.926;7.080;2022-11-18T07:29:40;9.00;88.80
10133;DHT22;5106;50.926;7.080;2022-11-18T07:32:08;9.00;88.80
10133;DHT22;5106;50.926;7.080;2022-11-18T07:34:33;9.00;88.80
10133;DHT22;5106;50.926;7.080;2022-11-18T07:36:59;9.00;88.90
10133;DHT22;5106;50.926;7.080;2022-11-18T07:39:25;9.00;88.90
10133;DHT22;5106;50.926;7.080;2022-11-18T07:41:50;9.00;88.90
10133;DHT22;5106;50.926;7.080;2022-11-18T07:44:16;9.00;88.90
10133;DHT22;5106;50.926;7.080;2022-11-18T07:46:41;9.00;88.90
10133;DHT22;5106;50.926;7.080;2022-11-18T07:49:07;9.00;88.80
10133;DHT22;5106;50.926;7.080;2022-11-18T07:51:35;9.00;88.90
10133;DHT22;5106;50.926;7.080;2022-11-18T07:54:09;9.10;88.90
10133;DHT22;5106;50.926;7.080;2022-11-18T07:56:35;9.10;88.90
10133;DHT22;5106;50.926;7.080;2022-11-18T07:59:00;9.10;88.90
10133;DHT22;5106;50.926;7.080;2022-11-18T08:01:26;9.10;88.90
10133;DHT22;5106;50.926;7.080;2022-11-18T08:03:54;9.10;89.10
10133;DHT22;5106;50.926;7.080;2022-11-18T08:06:20;9.20;89.20
10133;DHT22;5106;50.926;7.080;2022-11-18T08:08:46;9.20;89.10
10133;DHT22;5106;50.926;7.080;2022-11-18T08:11:15;9.20;88.90
10133;DHT22;5106;50.926;7.080;2022-11-18T08:13:40;9.30;89.00
10133;DHT22;5106;50.926;7.080;2022-11-18T08:16:18;9.30;89.00
10133;DHT22;5106;50.926;7.080;2022-11-18T08:18:44;9.30;89.10
10133;DHT22;5106;50.926;7.080;2022-11-18T08:21:10;9.40;89.10
10133;DHT22;5106;50.926;7.080;2022-11-18T08:23:36;9.40;89.10
10133;DHT22;5106;50.926;7.080;2022-11-18T08:26:07;9.40;89.00
10133;DHT22;5106;50.926;7.080;2022-11-18T08:28:33;9.40;89.00
10133;DHT22;5106;50.926;7.080;2022-11-18T08:30:59;9.40;89.00
10133;DHT22;5106;50.926;7.080;2022-11-18T08:33:25;9.50;89.00
10133;DHT22;5106;50.926;7.080;2022-11-18T08:35:51;9.50;89.00
10133;DHT22;5106;50.926;7.080;2022-11-18T08:38:17;9.50;88.90
10133;DHT22;5106;50.926;7.080;2022-11-18T08:40:44;9.60;88.90
10133;DHT22;5106;50.926;7.080;2022-11-18T08:43:10;9.60;88.90
10133;DHT22;5106;50.926;7.080;2022-11-18T08:45:38;9.70;88.80
10133;DHT22;5106;50.926;7.080;2022-11-18T08:48:04;9.70;88.80
10133;DHT22;5106;50.926;7.080;2022-11-18T08:50:29;9.70;88.70
10133;DHT22;5106;50.926;7.080;2022-11-18T08:52:55;9.80;88.70
10133;DHT22;5106;50.926;7.080;2022-11-18T08:55:21;9.80;88.60
10133;DHT22;5106;50.926;7.080;2022-11-18T08:57:46;9.80;88.60
10133;DHT22;5106;50.926;7.080;2022-11-18T09:00:13;9.80;88.60
10133;DHT22;5106;50.926;7.080;2022-11-18T09:02:38;9.90;88.50
10133;DHT22;5106;50.926;7.080;2022-11-18T09:05:04;9.90;88.50
10133;DHT22;5106;50.926;7.080;2022-11-18T09:07:30;9.90;88.40
10133;DHT22;5106;50.926;7.080;2022-11-18T09:09:56;9.90;88.40
10133;DHT22;5106;50.926;7.080;2022-11-18T09:12:21;10.00;88.30
10133;DHT22;5106;50.926;7.080;2022-11-18T09:14:47;9.90;88.30
10133;DHT22;5106;50.926;7.080;2022-11-18T09:17:13;9.90;88.30
10133;DHT22;5106;50.926;7.080;2022-11-18T09:19:39;9.90;88.30
10133;DHT22;5106;50.926;7.080;2022-11-18T09:22:06;9.90;88.30
10133;DHT22;5106;50.926;7.080;2022-11-18T09:24:32;9.90;88.30
10133;DHT22;5106;50.926;7.080;2022-11-18T09:26:58;9.90;88.20
10133;DHT22;5106;50.926;7.080;2022-11-18T09:29:26;9.90;88.20
10133;DHT22;5106;50.926;7.080;2022-11-18T09:31:52;9.90;88.20
10133;DHT22;5106;50.926;7.080;2022-11-18T09:34:18;9.90;88.20
10133;DHT22;5106;50.926;7.080;2022-11-18T09:36:44;10.00;88.20
10133;DHT22;5106;50.926;7.080;2022-11-18T09:39:10;10.00;88.20
10133;DHT22;5106;50.926;7.080;2022-11-18T09:47:35;10.10;88.10
10133;DHT22;5106;50.926;7.080;2022-11-18T09:50:05;10.20;88.10
10133;DHT22;5106;50.926;7.080;2022-11-18T09:52:37;10.20;88.10
10133;DHT22;5106;50.926;7.080;2022-11-18T09:55:16;10.30;88.10
10133;DHT22;5106;50.926;7.080;2022-11-18T09:57:47;10.30;88.00
10133;DHT22;5106;50.926;7.080;2022-11-18T10:00:15;10.40;87.90
10133;DHT22;5106;50.926;7.080;2022-11-18T10:03:00;10.40;87.40
10133;DHT22;5106;50.926;7.080;2022-11-18T10:05:44;10.40;87.20
10133;DHT22;5106;50.926;7.080;2022-11-18T10:08:31;10.50;87.20
10133;DHT22;5106;50.926;7.080;2022-11-18T10:13:50;10.50;86.60
10133;DHT22;5106;50.926;7.080;2022-11-18T10:16:30;10.50;86.50
10133;DHT22;5106;50.926;7.080;2022-11-18T10:24:15;10.60;85.20
10133;DHT22;5106;50.926;7.080;2022-11-18T10:26:42;10.70;85.10
10133;DHT22;5106;50.926;7.080;2022-11-18T10:29:08;10.80;84.60
10133;DHT22;5106;50.926;7.080;2022-11-18T10:32:12;10.90;83.90
10133;DHT22;5106;50.926;7.080;2022-11-18T10:34:56;11.00;83.90
10133;DHT22;5106;50.926;7.080;2022-11-18T10:37:36;11.00;83.90
10133;DHT22;5106;50.926;7.080;2022-11-18T10:40:04;11.10;84.20
10133;DHT22;5106;50.926;7.080;2022-11-18T10:42:44;11.20;84.30
10133;DHT22;5106;50.926;7.080;2022-11-18T10:50:41;11.30;82.10
10133;DHT22;5106;50.926;7.080;2022-11-18T10:53:31;11.30;82.40
10133;DHT22;5106;50.926;7.080;2022-11-18T10:56:05;11.30;82.50
10133;DHT22;5106;50.926;7.080;2022-11-18T10:58:35;11.30;82.30
10133;DHT22;5106;50.926;7.080;2022-11-18T11:01:20;11.30;82.60
10133;DHT22;5106;50.926;7.080;2022-11-18T11:04:11;11.30;83.00
10133;DHT22;5106;50.926;7.080;2022-11-18T11:06:37;11.30;83.40
10133;DHT22;5106;50.926;7.080;2022-11-18T11:14:11;11.30;83.00
10133;DHT22;5106;50.926;7.080;2022-11-18T11:17:01;11.30;81.70
10133;DHT22;5106;50.926;7.080;2022-11-18T11:22:25;11.40;80.20
10133;DHT22;5106;50.926;7.080;2022-11-18T11:24:51;11.50;80.90
10133;DHT22;5106;50.926;7.080;2022-11-18T11:27:41;11.60;82.10
10133;DHT22;5106;50.926;7.080;2022-11-18T11:35:24;11.70;81.10
10133;DHT22;5106;50.926;7.080;2022-11-18T11:38:00;11.70;81.20
10133;DHT22;5106;50.926;7.080;2022-11-18T11:40:59;11.80;80.80
10133;DHT22;5106;50.926;7.080;2022-11-18T11:43:37;11.80;80.40
10133;DHT22;5106;50.926;7.080;2022-11-18T11:49:05;11.80;81.50
10133;DHT22;5106;50.926;7.080;2022-11-18T11:51:51;11.80;82.10
10133;DHT22;5106;50.926;7.080;2022-11-18T11:57:02;11.70;80.90
10133;DHT22;5106;50.926;7.080;2022-11-18T11:59:45;11.60;81.40
10133;DHT22;5106;50.926;7.080;2022-11-18T12:02:32;11.60;81.60
10133;DHT22;5106;50.926;7.080;2022-11-18T12:05:06;11.50;81.40
10133;DHT22;5106;50.926;7.080;2022-11-18T12:07:43;11.50;81.20
10133;DHT22;5106;50.926;7.080;2022-11-18T12:19:12;11.80;79.50
10133;DHT22;5106;50.926;7.080;2022-11-18T12:27:00;12.00;78.90
10133;DHT22;5106;50.926;7.080;2022-11-18T12:29:35;12.00;78.80
10133;DHT22;5106;50.926;7.080;2022-11-18T12:32:02;12.10;79.00
10133;DHT22;5106;50.926;7.080;2022-11-18T12:34:34;12.20;79.60
10133;DHT22;5106;50.926;7.080;2022-11-18T12:40:00;12.30;79.60
10133;DHT22;5106;50.926;7.080;2022-11-18T12:50:51;12.50;77.30
10133;DHT22;5106;50.926;7.080;2022-11-18T12:56:09;12.60;76.80
10133;DHT22;5106;50.926;7.080;2022-11-18T12:58:35;12.70;76.60
10133;DHT22;5106;50.926;7.080;2022-11-18T13:01:11;12.70;76.00
10133;DHT22;5106;50.926;7.080;2022-11-18T13:03:37;12.70;77.60
10133;DHT22;5106;50.926;7.080;2022-11-18T13:06:27;12.80;78.70
10133;DHT22;5106;50.926;7.080;2022-11-18T13:09:00;12.70;78.30
10133;DHT22;5106;50.926;7.080;2022-11-18T13:11:28;12.50;78.50
10133;DHT22;5106;50.926;7.080;2022-11-18T13:14:29;12.50;79.10
10133;DHT22;5106;50.926;7.080;2022-11-18T13:25:52;12.20;79.60
10133;DHT22;5106;50.926;7.080;2022-11-18T13:28:37;12.10;79.90
10133;DHT22;5106;50.926;7.080;2022-11-18T13:33:40;12.10;80.10
10133;DHT22;5106;50.926;7.080;2022-11-18T13:36:23;12.10;80.40
10133;DHT22;5106;50.926;7.080;2022-11-18T13:38:58;12.00;80.80
10133;DHT22;5106;50.926;7.080;2022-11-18T13:41:25;12.00;80.70
10133;DHT22;5106;50.926;7.080;2022-11-18T13:44:30;12.00;80.70
10133;DHT22;5106;50.926;7.080;2022-11-18T13:50:01;12.00;81.70
10133;DHT22;5106;50.926;7.080;2022-11-18T13:52:38;11.90;81.30
10133;DHT22;5106;50.926;7.080;2022-11-18T13:55:27;12.00;80.80
10133;DHT22;5106;50.926;7.080;2022-11-18T13:58:06;11.90;81.50
10133;DHT22;5106;50.926;7.080;2022-11-18T14:00:56;11.90;81.90
10133;DHT22;5106;50.926;7.080;2022-11-18T14:03:27;11.80;82.20
10133;DHT22;5106;50.926;7.080;2022-11-18T14:05:55;11.80;82.40
10133;DHT22;5106;50.926;7.080;2022-11-18T14:08:29;11.80;82.30
10133;DHT22;5106;50.926;7.080;2022-11-18T14:10:56;11.80;82.40
10133;DHT22;5106;50.926;7.080;2022-11-18T14:13:36;11.80;82.40
10133;DHT22;5106;50.926;7.080;2022-11-18T14:16:40;11.80;82.20
10133;DHT22;5106;50.926;7.080;2022-11-18T14:19:27;11.70;81.80
10133;DHT22;5106;50.926;7.080;2022-11-18T14:22:01;11.70;81.90
10133;DHT22;5106;50.926;7.080;2022-11-18T14:24:26;11.60;82.00
10133;DHT22;5106;50.926;7.080;2022-11-18T14:26:52;11.60;82.20
10133;DHT22;5106;50.926;7.080;2022-11-18T14:29:18;11.60;82.40
10133;DHT22;5106;50.926;7.080;2022-11-18T14:34:35;11.60;82.70
10133;DHT22;5106;50.926;7.080;2022-11-18T14:37:01;11.60;82.80
10133;DHT22;5106;50.926;7.080;2022-11-18T14:39:28;11.60;82.90
10133;DHT22;5106;50.926;7.080;2022-11-18T14:41:54;11.60;82.90
10133;DHT22;5106;50.926;7.080;2022-11-18T14:44:22;11.60;82.90
10133;DHT22;5106;50.926;7.080;2022-11-18T14:47:01;11.60;83.10
10133;DHT22;5106;50.926;7.080;2022-11-18T14:49:28;11.50;83.20
10133;DHT22;5106;50.926;7.080;2022-11-18T14:51:55;11.50;83.10
10133;DHT22;5106;50.926;7.080;2022-11-18T14:54:23;11.50;83.10
10133;DHT22;5106;50.926;7.080;2022-11-18T14:56:54;11.40;83.30
10133;DHT22;5106;50.926;7.080;2022-11-18T14:59:20;11.40;83.20
10133;DHT22;5106;50.926;7.080;2022-11-18T15:01:47;11.30;83.30
10133;DHT22;5106;50.926;7.080;2022-11-18T15:04:13;11.30;83.30
10133;DHT22;5106;50.926;7.080;2022-11-18T15:06:39;11.20;83.40
10133;DHT22;5106;50.926;7.080;2022-11-18T15:09:06;11.20;83.60
10133;DHT22;5106;50.926;7.080;2022-11-18T15:11:35;11.10;83.50
10133;DHT22;5106;50.926;7.080;2022-11-18T15:14:01;11.10;83.40
10133;DHT22;5106;50.926;7.080;2022-11-18T15:16:28;11.00;83.50
10133;DHT22;5106;50.926;7.080;2022-11-18T15:18:56;11.00;83.70
10133;DHT22;5106;50.926;7.080;2022-11-18T15:21:23;10.90;83.80
10133;DHT22;5106;50.926;7.080;2022-11-18T15:23:49;10.90;83.90
10133;DHT22;5106;50.926;7.080;2022-11-18T15:26:27;10.80;83.90
10133;DHT22;5106;50.926;7.080;2022-11-18T15:28:54;10.80;84.10
10133;DHT22;5106;50.926;7.080;2022-11-18T15:31:21;10.70;84.00
10133;DHT22;5106;50.926;7.080;2022-11-18T15:33:47;10.70;84.00
10133;DHT22;5106;50.926;7.080;2022-11-18T15:36:17;10.60;83.90
10133;DHT22;5106;50.926;7.080;2022-11-18T15:38:43;10.50;83.80
10133;DHT22;5106;50.926;7.080;2022-11-18T15:41:15;10.50;83.90
10133;DHT22;5106;50.926;7.080;2022-11-18T15:43:42;10.40;84.00
10133;DHT22;5106;50.926;7.080;2022-11-18T15:46:08;10.40;84.10
10133;DHT22;5106;50.926;7.080;2022-11-18T15:48:34;10.40;84.20
10133;DHT22;5106;50.926;7.080;2022-11-18T15:50:59;10.40;84.20
10133;DHT22;5106;50.926;7.080;2022-11-18T15:53:25;10.30;84.30
10133;DHT22;5106;50.926;7.080;2022-11-18T15:55:51;10.30;84.50
10133;DHT22;5106;50.926;7.080;2022-11-18T15:58:16;10.20;84.50
10133;DHT22;5106;50.926;7.080;2022-11-18T16:00:42;10.20;84.70
10133;DHT22;5106;50.926;7.080;2022-11-18T16:03:08;10.20;84.80
10133;DHT22;5106;50.926;7.080;2022-11-18T16:05:33;10.20;84.80
10133;DHT22;5106;50.926;7.080;2022-11-18T16:07:59;10.10;84.90
10133;DHT22;5106;50.926;7.080;2022-11-18T16:10:24;10.10;85.00
10133;DHT22;5106;50.926;7.080;2022-11-18T16:13:08;10.10;85.00
10133;DHT22;5106;50.926;7.080;2022-11-18T16:15:34;10.00;85.00
10133;DHT22;5106;50.926;7.080;2022-11-18T16:18:11;10.00;85.10
10133;DHT22;5106;50.926;7.080;2022-11-18T16:20:43;9.90;85.20
10133;DHT22;5106;50.926;7.080;2022-11-18T16:23:09;9.90;85.30
10133;DHT22;5106;50.926;7.080;2022-11-18T16:25:34;9.80;85.20
10133;DHT22;5106;50.926;7.080;2022-11-18T16:28:00;9.80;85.20
10133;DHT22;5106;50.926;7.080;2022-11-18T16:30:26;9.70;85.10
10133;DHT22;5106;50.926;7.080;2022-11-18T16:33:10;9.70;85.40
10133;DHT22;5106;50.926;7.080;2022-11-18T16:35:36;9.70;85.60
10133;DHT22;5106;50.926;7.080;2022-11-18T16:38:01;9.70;85.60
10133;DHT22;5106;50.926;7.080;2022-11-18T16:40:27;9.70;85.60
10133;DHT22;5106;50.926;7.080;2022-11-18T16:42:53;9.70;85.60
10133;DHT22;5106;50.926;7.080;2022-11-18T16:45:19;9.70;85.70
10133;DHT22;5106;50.926;7.080;2022-11-18T16:47:45;9.70;85.60
10133;DHT22;5106;50.926;7.080;2022-11-18T16:50:11;9.60;85.70
10133;DHT22;5106;50.926;7.080;2022-11-18T16:52:37;9.60;85.80
10133;DHT22;5106;50.926;7.080;2022-11-18T16:55:03;9.60;85.80
10133;DHT22;5106;50.926;7.080;2022-11-18T16:57:29;9.60;85.90
10133;DHT22;5106;50.926;7.080;2022-11-18T16:59:55;9.60;85.90
10133;DHT22;5106;50.926;7.080;2022-11-18T17:02:21;9.60;86.00
10133;DHT22;5106;50.926;7.080;2022-11-18T17:04:48;9.60;86.00
10133;DHT22;5106;50.926;7.080;2022-11-18T17:07:14;9.50;86.00
10133;DHT22;5106;50.926;7.080;2022-11-18T17:09:39;9.60;86.10
10133;DHT22;5106;50.926;7.080;2022-11-18T17:12:05;9.50;86.10
10133;DHT22;5106;50.926;7.080;2022-11-18T17:14:31;9.50;86.10
10133;DHT22;5106;50.926;7.080;2022-11-18T17:16:56;9.50;85.90
10133;DHT22;5106;50.926;7.080;2022-11-18T17:19:23;9.50;86.00
10133;DHT22;5106;50.926;7.080;2022-11-18T17:21:49;9.50;86.10
10133;DHT22;5106;50.926;7.080;2022-11-18T17:24:20;9.50;86.10
10133;DHT22;5106;50.926;7.080;2022-11-18T17:26:46;9.40;86.10
10133;DHT22;5106;50.926;7.080;2022-11-18T17:29:13;9.40;86.20
10133;DHT22;5106;50.926;7.080;2022-11-18T17:31:40;9.40;86.20
10133;DHT22;5106;50.926;7.080;2022-11-18T17:34:09;9.40;86.10
10133;DHT22;5106;50.926;7.080;2022-11-18T17:36:35;9.30;86.20
10133;DHT22;5106;50.926;7.080;2022-11-18T17:39:01;9.30;86.30
10133;DHT22;5106;50.926;7.080;2022-11-18T17:41:27;9.30;86.30
10133;DHT22;5106;50.926;7.080;2022-11-18T17:44:14;9.30;86.40
10133;DHT22;5106;50.926;7.080;2022-11-18T17:46:40;9.30;86.40
10133;DHT22;5106;50.926;7.080;2022-11-18T17:49:16;9.30;86.40
10133;DHT22;5106;50.926;7.080;2022-11-18T17:51:42;9.30;86.50
10133;DHT22;5106;50.926;7.080;2022-11-18T17:54:10;9.30;86.50
10133;DHT22;5106;50.926;7.080;2022-11-18T17:56:37;9.30;86.50
10133;DHT22;5106;50.926;7.080;2022-11-18T17:59:03;9.30;86.50
10133;DHT22;5106;50.926;7.080;2022-11-18T18:01:28;9.30;86.60
10133;DHT22;5106;50.926;7.080;2022-11-18T18:03:54;9.30;86.60
10133;DHT22;5106;50.926;7.080;2022-11-18T18:06:19;9.30;86.60
10133;DHT22;5106;50.926;7.080;2022-11-18T18:08:46;9.30;86.70
10133;DHT22;5106;50.926;7.080;2022-11-18T18:11:15;9.30;86.80